sensor_id;sensor_type;location;lat;lon;timestamp;pressure;altitude;pressure_sealevel;temperature
19666;BMP180;9980;51.020;7.772;2023-04-30T00:00:23;98056.00;;;11.90
19666;BMP180;9980;51.020;7.772;2023-04-30T00:02:49;98058.00;;;11.80
19666;BMP180;9980;51.020;7.772;2023-04-30T00:05:15;98054.00;;;11.80
19666;BMP180;9980;51.020;7.772;2023-04-30T00:07:42;98065.00;;;11.70
19666;BMP180;9980;51.020;7.772;2023-04-30T00:10:09;98066.00;;;11.70
19666;BMP180;9980;51.020;7.772;2023-04-30T00:12:36;98073.00;;;11.60
19666;BMP180;9980;51.020;7.772;2023-04-30T00:15:03;98049.00;;;11.60
19666;BMP180;9980;51.020;7.772;2023-04-30T00:17:29;98066.00;;;11.50
19666;BMP180;9980;51.020;7.772;2023-04-30T00:19:56;98061.00;;;11.50
19666;BMP180;9980;51.020;7.772;2023-04-30T00:22:22;98059.00;;;11.40
19666;BMP180;9980;51.020;7.772;2023-04-30T00:24:49;98065.00;;;11.40
19666;BMP180;9980;51.020;7.772;2023-04-30T00:27:15;98059.00;;;11.30
19666;BMP180;9980;51.020;7.772;2023-04-30T00:29:41;98067.00;;;11.30
19666;BMP180;9980;51.020;7.772;2023-04-30T00:32:08;98064.00;;;11.20
19666;BMP180;9980;51.020;7.772;2023-04-30T00:34:34;98070.00;;;11.20
19666;BMP180;9980;51.020;7.772;2023-04-30T00:37:01;98065.00;;;11.10
19666;BMP180;9980;51.020;7.772;2023-04-30T00:39:27;98067.00;;;11.10
19666;BMP180;9980;51.020;7.772;2023-04-30T00:41:54;98067.00;;;11.00
19666;BMP180;9980;51.020;7.772;2023-04-30T00:44:20;98071.00;;;11.00
19666;BMP180;9980;51.020;7.772;2023-04-30T00:46:47;98071.00;;;10.90
19666;BMP180;9980;51.020;7.772;2023-04-30T00:49:14;98065.00;;;10.90
19666;BMP180;9980;51.020;7.772;2023-04-30T00:51:40;98068.00;;;10.80
19666;BMP180;9980;51.020;7.772;2023-04-30T00:54:08;98069.00;;;10.80
19666;BMP180;9980;51.020;7.772;2023-04-30T00:56:34;98066.00;;;10.80
19666;BMP180;9980;51.020;7.772;2023-04-30T00:59:03;98072.00;;;10.70
19666;BMP180;9980;51.020;7.772;2023-04-30T01:01:29;98084.00;;;10.70
19666;BMP180;9980;51.020;7.772;2023-04-30T01:03:57;98076.00;;;10.60
19666;BMP180;9980;51.020;7.772;2023-04-30T01:06:25;98073.00;;;10.60
19666;BMP180;9980;51.020;7.772;2023-04-30T01:08:52;98071.00;;;10.50
19666;BMP180;9980;51.020;7.772;2023-04-30T01:14:28;98089.00;;;10.40
19666;BMP180;9980;51.020;7.772;2023-04-30T01:19:45;98093.00;;;10.30
19666;BMP180;9980;51.020;7.772;2023-04-30T01:28:14;98094.00;;;10.10
19666;BMP180;9980;51.020;7.772;2023-04-30T01:30:47;98095.00;;;10.10
19666;BMP180;9980;51.020;7.772;2023-04-30T01:33:15;98095.00;;;10.10
19666;BMP180;9980;51.020;7.772;2023-04-30T01:36:59;98092.00;;;10.00
19666;BMP180;9980;51.020;7.772;2023-04-30T01:39:31;98090.00;;;9.90
19666;BMP180;9980;51.020;7.772;2023-04-30T01:45:00;98084.00;;;9.80
19666;BMP180;9980;51.020;7.772;2023-04-30T01:47:40;98092.00;;;9.80
19666;BMP180;9980;51.020;7.772;2023-04-30T01:50:41;98086.00;;;9.70
19666;BMP180;9980;51.020;7.772;2023-04-30T01:53:14;98078.00;;;9.70
19666;BMP180;9980;51.020;7.772;2023-04-30T01:55:48;98077.00;;;9.70
19666;BMP180;9980;51.020;7.772;2023-04-30T01:58:16;98076.00;;;9.60
19666;BMP180;9980;51.020;7.772;2023-04-30T02:00:43;98082.00;;;9.60
19666;BMP180;9980;51.020;7.772;2023-04-30T02:03:09;98081.00;;;9.60
19666;BMP180;9980;51.020;7.772;2023-04-30T02:05:35;98090.00;;;9.50
19666;BMP180;9980;51.020;7.772;2023-04-30T02:08:02;98075.00;;;9.50
19666;BMP180;9980;51.020;7.772;2023-04-30T02:10:29;98079.00;;;9.50
19666;BMP180;9980;51.020;7.772;2023-04-30T02:12:55;98073.00;;;9.40
19666;BMP180;9980;51.020;7.772;2023-04-30T02:15:21;98094.00;;;9.40
19666;BMP180;9980;51.020;7.772;2023-04-30T02:17:48;98080.00;;;9.40
19666;BMP180;9980;51.020;7.772;2023-04-30T02:20:14;98087.00;;;9.40
19666;BMP180;9980;51.020;7.772;2023-04-30T02:22:41;98092.00;;;9.30
19666;BMP180;9980;51.020;7.772;2023-04-30T02:25:08;98087.00;;;9.30
19666;BMP180;9980;51.020;7.772;2023-04-30T02:27:36;98088.00;;;9.20
19666;BMP180;9980;51.020;7.772;2023-04-30T02:30:04;98090.00;;;9.20
19666;BMP180;9980;51.020;7.772;2023-04-30T02:32:30;98091.00;;;9.20
19666;BMP180;9980;51.020;7.772;2023-04-30T02:34:57;98107.00;;;9.20
19666;BMP180;9980;51.020;7.772;2023-04-30T02:37:24;98102.00;;;9.10
19666;BMP180;9980;51.020;7.772;2023-04-30T02:39:51;98096.00;;;9.10
19666;BMP180;9980;51.020;7.772;2023-04-30T02:42:18;98095.00;;;9.10
19666;BMP180;9980;51.020;7.772;2023-04-30T02:44:44;98092.00;;;9.00
19666;BMP180;9980;51.020;7.772;2023-04-30T02:47:10;98097.00;;;9.00
19666;BMP180;9980;51.020;7.772;2023-04-30T02:49:37;98100.00;;;9.00
19666;BMP180;9980;51.020;7.772;2023-04-30T02:52:03;98101.00;;;9.00
19666;BMP180;9980;51.020;7.772;2023-04-30T02:54:30;98100.00;;;8.90
19666;BMP180;9980;51.020;7.772;2023-04-30T02:56:56;98098.00;;;8.90
19666;BMP180;9980;51.020;7.772;2023-04-30T02:59:23;98080.00;;;8.90
19666;BMP180;9980;51.020;7.772;2023-04-30T03:01:49;98099.00;;;8.90
19666;BMP180;9980;51.020;7.772;2023-04-30T03:04:15;98103.00;;;8.90
19666;BMP180;9980;51.020;7.772;2023-04-30T03:06:41;98104.00;;;8.80
19666;BMP180;9980;51.020;7.772;2023-04-30T03:09:08;98102.00;;;8.80
19666;BMP180;9980;51.020;7.772;2023-04-30T03:11:34;98095.00;;;8.80
19666;BMP180;9980;51.020;7.772;2023-04-30T03:14:03;98101.00;;;8.80
19666;BMP180;9980;51.020;7.772;2023-04-30T03:16:29;98095.00;;;8.80
19666;BMP180;9980;51.020;7.772;2023-04-30T03:18:56;98089.00;;;8.80
19666;BMP180;9980;51.020;7.772;2023-04-30T03:21:22;98104.00;;;8.80
19666;BMP180;9980;51.020;7.772;2023-04-30T03:23:49;98090.00;;;8.70
19666;BMP180;9980;51.020;7.772;2023-04-30T03:26:15;98089.00;;;8.70
19666;BMP180;9980;51.020;7.772;2023-04-30T03:28:41;98085.00;;;8.70
19666;BMP180;9980;51.020;7.772;2023-04-30T03:31:07;98096.00;;;8.70
19666;BMP180;9980;51.020;7.772;2023-04-30T03:33:34;98091.00;;;8.70
19666;BMP180;9980;51.020;7.772;2023-04-30T03:36:00;98095.00;;;8.70
19666;BMP180;9980;51.020;7.772;2023-04-30T03:38:26;98099.00;;;8.70
19666;BMP180;9980;51.020;7.772;2023-04-30T03:40:53;98108.00;;;8.70
19666;BMP180;9980;51.020;7.772;2023-04-30T03:43:20;98106.00;;;8.60
19666;BMP180;9980;51.020;7.772;2023-04-30T03:45:47;98098.00;;;8.60
19666;BMP180;9980;51.020;7.772;2023-04-30T03:48:13;98094.00;;;8.60
19666;BMP180;9980;51.020;7.772;2023-04-30T03:50:39;98099.00;;;8.60
19666;BMP180;9980;51.020;7.772;2023-04-30T03:53:06;98090.00;;;8.60
19666;BMP180;9980;51.020;7.772;2023-04-30T03:55:33;98090.00;;;8.60
19666;BMP180;9980;51.020;7.772;2023-04-30T03:58:01;98082.00;;;8.60
19666;BMP180;9980;51.020;7.772;2023-04-30T04:00:27;98095.00;;;8.60
19666;BMP180;9980;51.020;7.772;2023-04-30T04:02:54;98088.00;;;8.60
19666;BMP180;9980;51.020;7.772;2023-04-30T04:05:22;98101.00;;;8.60
19666;BMP180;9980;51.020;7.772;2023-04-30T04:07:48;98087.00;;;8.50
19666;BMP180;9980;51.020;7.772;2023-04-30T04:10:15;98091.00;;;8.50
19666;BMP180;9980;51.020;7.772;2023-04-30T04:12:41;98086.00;;;8.50
19666;BMP180;9980;51.020;7.772;2023-04-30T04:15:08;98094.00;;;8.50
19666;BMP180;9980;51.020;7.772;2023-04-30T04:17:35;98095.00;;;8.50
19666;BMP180;9980;51.020;7.772;2023-04-30T04:20:01;98098.00;;;8.50
19666;BMP180;9980;51.020;7.772;2023-04-30T04:22:27;98094.00;;;8.50
19666;BMP180;9980;51.020;7.772;2023-04-30T04:24:54;98093.00;;;8.50
19666;BMP180;9980;51.020;7.772;2023-04-30T04:27:22;98103.00;;;8.50
19666;BMP180;9980;51.020;7.772;2023-04-30T04:29:49;98103.00;;;8.40
19666;BMP180;9980;51.020;7.772;2023-04-30T04:32:15;98114.00;;;8.40
19666;BMP180;9980;51.020;7.772;2023-04-30T04:34:42;98116.00;;;8.40
19666;BMP180;9980;51.020;7.772;2023-04-30T04:37:09;98109.00;;;8.40
19666;BMP180;9980;51.020;7.772;2023-04-30T04:39:35;98100.00;;;8.50
19666;BMP180;9980;51.020;7.772;2023-04-30T04:42:05;98100.00;;;8.50
19666;BMP180;9980;51.020;7.772;2023-04-30T04:44:31;98116.00;;;8.50
19666;BMP180;9980;51.020;7.772;2023-04-30T04:46:58;98116.00;;;8.50
19666;BMP180;9980;51.020;7.772;2023-04-30T04:49:24;98109.00;;;8.50
19666;BMP180;9980;51.020;7.772;2023-04-30T04:51:51;98120.00;;;8.50
19666;BMP180;9980;51.020;7.772;2023-04-30T04:54:18;98098.00;;;8.50
19666;BMP180;9980;51.020;7.772;2023-04-30T04:56:44;98120.00;;;8.50
19666;BMP180;9980;51.020;7.772;2023-04-30T04:59:11;98111.00;;;8.60
19666;BMP180;9980;51.020;7.772;2023-04-30T05:01:38;98114.00;;;8.60
19666;BMP180;9980;51.020;7.772;2023-04-30T05:04:04;98125.00;;;8.60
19666;BMP180;9980;51.020;7.772;2023-04-30T05:06:31;98113.00;;;8.60
19666;BMP180;9980;51.020;7.772;2023-04-30T05:08:57;98117.00;;;8.70
19666;BMP180;9980;51.020;7.772;2023-04-30T05:11:24;98127.00;;;8.70
19666;BMP180;9980;51.020;7.772;2023-04-30T05:13:51;98109.00;;;8.70
19666;BMP180;9980;51.020;7.772;2023-04-30T05:16:17;98125.00;;;8.70
19666;BMP180;9980;51.020;7.772;2023-04-30T05:18:43;98117.00;;;8.80
19666;BMP180;9980;51.020;7.772;2023-04-30T05:21:09;98120.00;;;8.80
19666;BMP180;9980;51.020;7.772;2023-04-30T05:23:36;98116.00;;;8.90
19666;BMP180;9980;51.020;7.772;2023-04-30T05:26:02;98117.00;;;8.90
19666;BMP180;9980;51.020;7.772;2023-04-30T05:28:30;98133.00;;;9.00
19666;BMP180;9980;51.020;7.772;2023-04-30T05:30:56;98104.00;;;9.00
19666;BMP180;9980;51.020;7.772;2023-04-30T05:33:26;98121.00;;;9.10
19666;BMP180;9980;51.020;7.772;2023-04-30T05:35:52;98129.00;;;9.10
19666;BMP180;9980;51.020;7.772;2023-04-30T05:38:21;98140.00;;;9.10
19666;BMP180;9980;51.020;7.772;2023-04-30T05:40:48;98141.00;;;9.20
19666;BMP180;9980;51.020;7.772;2023-04-30T05:43:23;98141.00;;;9.20
19666;BMP180;9980;51.020;7.772;2023-04-30T05:45:50;98135.00;;;9.30
19666;BMP180;9980;51.020;7.772;2023-04-30T05:48:16;98133.00;;;9.30
19666;BMP180;9980;51.020;7.772;2023-04-30T05:50:43;98130.00;;;9.30
19666;BMP180;9980;51.020;7.772;2023-04-30T05:53:09;98147.00;;;9.40
19666;BMP180;9980;51.020;7.772;2023-04-30T05:55:42;98137.00;;;9.40
19666;BMP180;9980;51.020;7.772;2023-04-30T05:58:08;98125.00;;;9.50
19666;BMP180;9980;51.020;7.772;2023-04-30T06:00:35;98151.00;;;9.50
19666;BMP180;9980;51.020;7.772;2023-04-30T06:03:03;98135.00;;;9.60
19666;BMP180;9980;51.020;7.772;2023-04-30T06:05:29;98145.00;;;9.60
19666;BMP180;9980;51.020;7.772;2023-04-30T06:07:56;98158.00;;;9.70
19666;BMP180;9980;51.020;7.772;2023-04-30T06:10:22;98150.00;;;9.70
19666;BMP180;9980;51.020;7.772;2023-04-30T06:12:53;98163.00;;;9.80
19666;BMP180;9980;51.020;7.772;2023-04-30T06:15:25;98157.00;;;9.80
19666;BMP180;9980;51.020;7.772;2023-04-30T06:17:52;98147.00;;;9.90
19666;BMP180;9980;51.020;7.772;2023-04-30T06:20:40;98156.00;;;10.00
19666;BMP180;9980;51.020;7.772;2023-04-30T06:23:21;98148.00;;;10.00
19666;BMP180;9980;51.020;7.772;2023-04-30T06:25:47;98146.00;;;10.10
19666;BMP180;9980;51.020;7.772;2023-04-30T06:28:13;98133.00;;;10.20
19666;BMP180;9980;51.020;7.772;2023-04-30T06:30:50;98153.00;;;10.30
19666;BMP180;9980;51.020;7.772;2023-04-30T06:33:31;98144.00;;;10.40
19666;BMP180;9980;51.020;7.772;2023-04-30T06:35:59;98147.00;;;10.40
19666;BMP180;9980;51.020;7.772;2023-04-30T06:38:25;98150.00;;;10.50
19666;BMP180;9980;51.020;7.772;2023-04-30T06:40:52;98146.00;;;10.60
19666;BMP180;9980;51.020;7.772;2023-04-30T06:43:18;98145.00;;;10.70
19666;BMP180;9980;51.020;7.772;2023-04-30T06:45:45;98137.00;;;10.80
19666;BMP180;9980;51.020;7.772;2023-04-30T06:48:11;98145.00;;;10.90
19666;BMP180;9980;51.020;7.772;2023-04-30T06:50:39;98140.00;;;10.90
19666;BMP180;9980;51.020;7.772;2023-04-30T06:53:13;98137.00;;;11.00
19666;BMP180;9980;51.020;7.772;2023-04-30T06:55:41;98149.00;;;11.10
19666;BMP180;9980;51.020;7.772;2023-04-30T06:58:08;98135.00;;;11.20
19666;BMP180;9980;51.020;7.772;2023-04-30T07:00:34;98146.00;;;11.30
19666;BMP180;9980;51.020;7.772;2023-04-30T07:03:01;98141.00;;;11.40
19666;BMP180;9980;51.020;7.772;2023-04-30T07:05:31;98140.00;;;11.50
19666;BMP180;9980;51.020;7.772;2023-04-30T07:08:00;98137.00;;;11.60
19666;BMP180;9980;51.020;7.772;2023-04-30T07:10:26;98134.00;;;11.70
19666;BMP180;9980;51.020;7.772;2023-04-30T07:12:53;98138.00;;;11.80
19666;BMP180;9980;51.020;7.772;2023-04-30T07:15:19;98133.00;;;11.90
19666;BMP180;9980;51.020;7.772;2023-04-30T07:17:45;98135.00;;;12.10
19666;BMP180;9980;51.020;7.772;2023-04-30T07:20:12;98136.00;;;12.20
19666;BMP180;9980;51.020;7.772;2023-04-30T07:22:42;98128.00;;;12.30
19666;BMP180;9980;51.020;7.772;2023-04-30T07:25:12;98137.00;;;12.40
19666;BMP180;9980;51.020;7.772;2023-04-30T07:27:39;98132.00;;;12.50
19666;BMP180;9980;51.020;7.772;2023-04-30T07:30:07;98124.00;;;12.70
19666;BMP180;9980;51.020;7.772;2023-04-30T07:32:36;98113.00;;;12.80
19666;BMP180;9980;51.020;7.772;2023-04-30T07:35:04;98110.00;;;12.90
19666;BMP180;9980;51.020;7.772;2023-04-30T07:37:31;98117.00;;;13.10
19666;BMP180;9980;51.020;7.772;2023-04-30T07:40:02;98110.00;;;13.20
19666;BMP180;9980;51.020;7.772;2023-04-30T07:42:29;98114.00;;;13.40
19666;BMP180;9980;51.020;7.772;2023-04-30T07:44:55;98113.00;;;13.50
19666;BMP180;9980;51.020;7.772;2023-04-30T07:47:21;98118.00;;;13.70
19666;BMP180;9980;51.020;7.772;2023-04-30T07:49:48;98109.00;;;13.80
19666;BMP180;9980;51.020;7.772;2023-04-30T07:52:15;98109.00;;;14.00
19666;BMP180;9980;51.020;7.772;2023-04-30T07:54:41;98126.00;;;14.20
19666;BMP180;9980;51.020;7.772;2023-04-30T07:57:07;98118.00;;;14.30
19666;BMP180;9980;51.020;7.772;2023-04-30T07:59:34;98114.00;;;14.50
19666;BMP180;9980;51.020;7.772;2023-04-30T08:02:00;98128.00;;;14.60
19666;BMP180;9980;51.020;7.772;2023-04-30T08:04:27;98118.00;;;14.80
19666;BMP180;9980;51.020;7.772;2023-04-30T08:06:53;98128.00;;;14.90
19666;BMP180;9980;51.020;7.772;2023-04-30T08:09:19;98125.00;;;15.10
19666;BMP180;9980;51.020;7.772;2023-04-30T08:11:45;98122.00;;;15.20
19666;BMP180;9980;51.020;7.772;2023-04-30T08:14:12;98116.00;;;15.30
19666;BMP180;9980;51.020;7.772;2023-04-30T08:16:38;98124.00;;;15.50
19666;BMP180;9980;51.020;7.772;2023-04-30T08:19:04;98130.00;;;15.60
19666;BMP180;9980;51.020;7.772;2023-04-30T08:21:31;98131.00;;;15.70
19666;BMP180;9980;51.020;7.772;2023-04-30T08:23:57;98125.00;;;15.90
19666;BMP180;9980;51.020;7.772;2023-04-30T08:26:24;98131.00;;;16.00
19666;BMP180;9980;51.020;7.772;2023-04-30T08:28:51;98133.00;;;16.20
19666;BMP180;9980;51.020;7.772;2023-04-30T08:31:17;98137.00;;;16.30
19666;BMP180;9980;51.020;7.772;2023-04-30T08:33:43;98140.00;;;16.40
19666;BMP180;9980;51.020;7.772;2023-04-30T08:36:10;98125.00;;;16.50
19666;BMP180;9980;51.020;7.772;2023-04-30T08:38:36;98139.00;;;16.60
19666;BMP180;9980;51.020;7.772;2023-04-30T08:41:12;98128.00;;;16.70
19666;BMP180;9980;51.020;7.772;2023-04-30T08:43:40;98127.00;;;16.90
19666;BMP180;9980;51.020;7.772;2023-04-30T08:46:07;98126.00;;;17.00
19666;BMP180;9980;51.020;7.772;2023-04-30T08:48:34;98125.00;;;17.10
19666;BMP180;9980;51.020;7.772;2023-04-30T08:51:02;98118.00;;;17.20
19666;BMP180;9980;51.020;7.772;2023-04-30T08:53:30;98116.00;;;17.30
19666;BMP180;9980;51.020;7.772;2023-04-30T08:55:59;98110.00;;;17.40
19666;BMP180;9980;51.020;7.772;2023-04-30T08:58:26;98122.00;;;17.50
19666;BMP180;9980;51.020;7.772;2023-04-30T09:00:52;98122.00;;;17.60
19666;BMP180;9980;51.020;7.772;2023-04-30T09:03:18;98118.00;;;17.70
19666;BMP180;9980;51.020;7.772;2023-04-30T09:05:47;98117.00;;;17.80
19666;BMP180;9980;51.020;7.772;2023-04-30T09:08:18;98118.00;;;17.90
19666;BMP180;9980;51.020;7.772;2023-04-30T09:10:45;98122.00;;;18.10
19666;BMP180;9980;51.020;7.772;2023-04-30T09:13:11;98116.00;;;18.20
19666;BMP180;9980;51.020;7.772;2023-04-30T09:15:40;98112.00;;;18.30
19666;BMP180;9980;51.020;7.772;2023-04-30T09:18:13;98105.00;;;18.40
19666;BMP180;9980;51.020;7.772;2023-04-30T09:21:00;98115.00;;;18.50
19666;BMP180;9980;51.020;7.772;2023-04-30T09:23:28;98100.00;;;18.60
19666;BMP180;9980;51.020;7.772;2023-04-30T09:25:54;98107.00;;;18.70
19666;BMP180;9980;51.020;7.772;2023-04-30T09:28:22;98096.00;;;18.80
19666;BMP180;9980;51.020;7.772;2023-04-30T09:30:51;98106.00;;;18.90
19666;BMP180;9980;51.020;7.772;2023-04-30T09:33:18;98104.00;;;19.00
19666;BMP180;9980;51.020;7.772;2023-04-30T09:35:45;98095.00;;;19.10
19666;BMP180;9980;51.020;7.772;2023-04-30T09:38:32;98095.00;;;19.10
19666;BMP180;9980;51.020;7.772;2023-04-30T09:41:00;98092.00;;;19.20
19666;BMP180;9980;51.020;7.772;2023-04-30T09:43:28;98083.00;;;19.30
19666;BMP180;9980;51.020;7.772;2023-04-30T09:45:57;98084.00;;;19.40
19666;BMP180;9980;51.020;7.772;2023-04-30T09:48:25;98083.00;;;19.50
19666;BMP180;9980;51.020;7.772;2023-04-30T09:50:53;98076.00;;;19.60
19666;BMP180;9980;51.020;7.772;2023-04-30T09:53:20;98078.00;;;19.60
19666;BMP180;9980;51.020;7.772;2023-04-30T09:55:49;98090.00;;;19.70
19666;BMP180;9980;51.020;7.772;2023-04-30T09:58:17;98080.00;;;19.80
19666;BMP180;9980;51.020;7.772;2023-04-30T10:00:45;98084.00;;;19.90
19666;BMP180;9980;51.020;7.772;2023-04-30T10:03:14;98056.00;;;20.00
19666;BMP180;9980;51.020;7.772;2023-04-30T10:05:44;98064.00;;;20.00
19666;BMP180;9980;51.020;7.772;2023-04-30T10:08:30;98066.00;;;20.10
19666;BMP180;9980;51.020;7.772;2023-04-30T10:11:05;98062.00;;;20.20
19666;BMP180;9980;51.020;7.772;2023-04-30T10:13:44;98074.00;;;20.30
19666;BMP180;9980;51.020;7.772;2023-04-30T10:16:57;98059.00;;;20.30
19666;BMP180;9980;51.020;7.772;2023-04-30T10:19:30;98060.00;;;20.40
19666;BMP180;9980;51.020;7.772;2023-04-30T10:21:59;98056.00;;;20.50
19666;BMP180;9980;51.020;7.772;2023-04-30T10:24:26;98055.00;;;20.60
19666;BMP180;9980;51.020;7.772;2023-04-30T10:26:54;98060.00;;;20.60
19666;BMP180;9980;51.020;7.772;2023-04-30T10:29:22;98047.00;;;20.60
19666;BMP180;9980;51.020;7.772;2023-04-30T10:31:50;98046.00;;;20.70
19666;BMP180;9980;51.020;7.772;2023-04-30T10:36:59;98041.00;;;20.80
19666;BMP180;9980;51.020;7.772;2023-04-30T10:39:27;98026.00;;;20.80
19666;BMP180;9980;51.020;7.772;2023-04-30T10:42:05;98050.00;;;20.80
19666;BMP180;9980;51.020;7.772;2023-04-30T10:44:33;98052.00;;;20.90
19666;BMP180;9980;51.020;7.772;2023-04-30T10:47:03;98042.00;;;21.00
19666;BMP180;9980;51.020;7.772;2023-04-30T10:49:30;98027.00;;;21.10
19666;BMP180;9980;51.020;7.772;2023-04-30T10:52:02;98032.00;;;21.10
19666;BMP180;9980;51.020;7.772;2023-04-30T10:54:34;98015.00;;;21.20
19666;BMP180;9980;51.020;7.772;2023-04-30T10:57:16;97992.00;;;21.30
19666;BMP180;9980;51.020;7.772;2023-04-30T11:02:40;98015.00;;;21.40
19666;BMP180;9980;51.020;7.772;2023-04-30T11:05:11;98021.00;;;21.40
19666;BMP180;9980;51.020;7.772;2023-04-30T11:07:50;98029.00;;;21.40
19666;BMP180;9980;51.020;7.772;2023-04-30T11:10:24;97978.00;;;21.40
19666;BMP180;9980;51.020;7.772;2023-04-30T11:12:53;98017.00;;;21.50
19666;BMP180;9980;51.020;7.772;2023-04-30T11:15:26;97999.00;;;21.60
19666;BMP180;9980;51.020;7.772;2023-04-30T11:17:57;97986.00;;;21.70
19666;BMP180;9980;51.020;7.772;2023-04-30T11:20:26;98007.00;;;21.70
19666;BMP180;9980;51.020;7.772;2023-04-30T11:23:21;97984.00;;;21.70
19666;BMP180;9980;51.020;7.772;2023-04-30T11:26:06;97995.00;;;21.90
19666;BMP180;9980;51.020;7.772;2023-04-30T11:28:36;97995.00;;;21.90
19666;BMP180;9980;51.020;7.772;2023-04-30T11:31:04;97984.00;;;22.00
19666;BMP180;9980;51.020;7.772;2023-04-30T11:33:33;98004.00;;;22.10
19666;BMP180;9980;51.020;7.772;2023-04-30T11:36:01;97966.00;;;22.10
19666;BMP180;9980;51.020;7.772;2023-04-30T11:38:35;97999.00;;;22.20
19666;BMP180;9980;51.020;7.772;2023-04-30T11:41:03;97986.00;;;22.30
19666;BMP180;9980;51.020;7.772;2023-04-30T11:43:32;97980.00;;;22.30
19666;BMP180;9980;51.020;7.772;2023-04-30T11:46:26;97982.00;;;22.40
19666;BMP180;9980;51.020;7.772;2023-04-30T11:48:53;97968.00;;;22.50
19666;BMP180;9980;51.020;7.772;2023-04-30T11:51:22;97974.00;;;22.50
19666;BMP180;9980;51.020;7.772;2023-04-30T11:53:54;97965.00;;;22.60
19666;BMP180;9980;51.020;7.772;2023-04-30T11:56:23;97976.00;;;22.60
19666;BMP180;9980;51.020;7.772;2023-04-30T11:58:53;97965.00;;;22.70
19666;BMP180;9980;51.020;7.772;2023-04-30T12:01:26;97961.00;;;22.80
19666;BMP180;9980;51.020;7.772;2023-04-30T12:03:55;97974.00;;;22.80
19666;BMP180;9980;51.020;7.772;2023-04-30T12:06:29;97974.00;;;22.80
19666;BMP180;9980;51.020;7.772;2023-04-30T12:08:59;97963.00;;;22.80
19666;BMP180;9980;51.020;7.772;2023-04-30T12:11:34;97964.00;;;22.80
19666;BMP180;9980;51.020;7.772;2023-04-30T12:14:05;97973.00;;;22.70
19666;BMP180;9980;51.020;7.772;2023-04-30T12:16:49;97974.00;;;22.50
19666;BMP180;9980;51.020;7.772;2023-04-30T12:19:18;97960.00;;;22.40
19666;BMP180;9980;51.020;7.772;2023-04-30T12:21:46;97970.00;;;22.40
19666;BMP180;9980;51.020;7.772;2023-04-30T12:24:15;97956.00;;;22.40
19666;BMP180;9980;51.020;7.772;2023-04-30T12:26:43;97961.00;;;22.50
19666;BMP180;9980;51.020;7.772;2023-04-30T12:29:14;97968.00;;;22.60
19666;BMP180;9980;51.020;7.772;2023-04-30T12:31:42;97954.00;;;22.60
19666;BMP180;9980;51.020;7.772;2023-04-30T12:34:13;97955.00;;;22.70
19666;BMP180;9980;51.020;7.772;2023-04-30T12:36:41;97960.00;;;22.70
19666;BMP180;9980;51.020;7.772;2023-04-30T12:39:12;97956.00;;;22.80
19666;BMP180;9980;51.020;7.772;2023-04-30T12:41:49;97928.00;;;22.90
19666;BMP180;9980;51.020;7.772;2023-04-30T12:44:25;97932.00;;;23.00
19666;BMP180;9980;51.020;7.772;2023-04-30T12:46:55;97944.00;;;23.10
19666;BMP180;9980;51.020;7.772;2023-04-30T12:49:27;97960.00;;;23.10
19666;BMP180;9980;51.020;7.772;2023-04-30T12:52:10;97952.00;;;23.20
19666;BMP180;9980;51.020;7.772;2023-04-30T12:54:38;97953.00;;;23.20
19666;BMP180;9980;51.020;7.772;2023-04-30T12:57:10;97934.00;;;23.20
19666;BMP180;9980;51.020;7.772;2023-04-30T13:02:24;97923.00;;;23.10
19666;BMP180;9980;51.020;7.772;2023-04-30T13:04:52;97945.00;;;23.00
19666;BMP180;9980;51.020;7.772;2023-04-30T13:07:21;97908.00;;;23.00
19666;BMP180;9980;51.020;7.772;2023-04-30T13:09:50;97922.00;;;23.00
19666;BMP180;9980;51.020;7.772;2023-04-30T13:12:20;97921.00;;;23.10
19666;BMP180;9980;51.020;7.772;2023-04-30T13:14:47;97892.00;;;23.10
19666;BMP180;9980;51.020;7.772;2023-04-30T13:17:13;97892.00;;;23.00
19666;BMP180;9980;51.020;7.772;2023-04-30T13:19:40;97925.00;;;23.10
19666;BMP180;9980;51.020;7.772;2023-04-30T13:22:07;97928.00;;;23.20
19666;BMP180;9980;51.020;7.772;2023-04-30T13:24:35;97899.00;;;23.20
19666;BMP180;9980;51.020;7.772;2023-04-30T13:27:02;97908.00;;;23.10
19666;BMP180;9980;51.020;7.772;2023-04-30T13:29:29;97932.00;;;23.10
19666;BMP180;9980;51.020;7.772;2023-04-30T13:32:00;97928.00;;;23.00
19666;BMP180;9980;51.020;7.772;2023-04-30T13:34:28;97917.00;;;23.00
19666;BMP180;9980;51.020;7.772;2023-04-30T13:36:55;97925.00;;;23.00
19666;BMP180;9980;51.020;7.772;2023-04-30T13:39:23;97934.00;;;22.90
19666;BMP180;9980;51.020;7.772;2023-04-30T13:41:53;97908.00;;;22.90
19666;BMP180;9980;51.020;7.772;2023-04-30T13:44:20;97892.00;;;22.80
19666;BMP180;9980;51.020;7.772;2023-04-30T13:46:46;97919.00;;;22.80
19666;BMP180;9980;51.020;7.772;2023-04-30T13:49:13;97916.00;;;22.80
19666;BMP180;9980;51.020;7.772;2023-04-30T13:51:40;97908.00;;;22.80
19666;BMP180;9980;51.020;7.772;2023-04-30T13:54:07;97883.00;;;22.80
19666;BMP180;9980;51.020;7.772;2023-04-30T13:56:34;97908.00;;;22.80
19666;BMP180;9980;51.020;7.772;2023-04-30T13:59:01;97881.00;;;22.70
19666;BMP180;9980;51.020;7.772;2023-04-30T14:01:28;97897.00;;;22.70
19666;BMP180;9980;51.020;7.772;2023-04-30T14:03:55;97906.00;;;22.60
19666;BMP180;9980;51.020;7.772;2023-04-30T14:06:22;97916.00;;;22.60
19666;BMP180;9980;51.020;7.772;2023-04-30T14:08:49;97884.00;;;22.40
19666;BMP180;9980;51.020;7.772;2023-04-30T14:11:16;97889.00;;;22.50
19666;BMP180;9980;51.020;7.772;2023-04-30T14:13:45;97883.00;;;22.40
19666;BMP180;9980;51.020;7.772;2023-04-30T14:16:12;97869.00;;;22.30
19666;BMP180;9980;51.020;7.772;2023-04-30T14:18:39;97854.00;;;22.40
19666;BMP180;9980;51.020;7.772;2023-04-30T14:21:06;97870.00;;;22.30
19666;BMP180;9980;51.020;7.772;2023-04-30T14:23:33;97896.00;;;22.30
19666;BMP180;9980;51.020;7.772;2023-04-30T14:26:00;97861.00;;;22.30
19666;BMP180;9980;51.020;7.772;2023-04-30T14:28:27;97867.00;;;22.20
19666;BMP180;9980;51.020;7.772;2023-04-30T14:30:54;97850.00;;;22.20
19666;BMP180;9980;51.020;7.772;2023-04-30T14:33:24;97860.00;;;22.20
19666;BMP180;9980;51.020;7.772;2023-04-30T14:35:58;97863.00;;;22.20
19666;BMP180;9980;51.020;7.772;2023-04-30T14:38:27;97876.00;;;22.20
19666;BMP180;9980;51.020;7.772;2023-04-30T14:40:53;97831.00;;;22.20
19666;BMP180;9980;51.020;7.772;2023-04-30T14:43:20;97848.00;;;22.20
19666;BMP180;9980;51.020;7.772;2023-04-30T14:45:47;97860.00;;;22.20
19666;BMP180;9980;51.020;7.772;2023-04-30T14:48:13;97858.00;;;22.20
19666;BMP180;9980;51.020;7.772;2023-04-30T14:50:40;97875.00;;;22.20
19666;BMP180;9980;51.020;7.772;2023-04-30T14:53:07;97831.00;;;22.20
19666;BMP180;9980;51.020;7.772;2023-04-30T14:55:36;97849.00;;;22.20
19666;BMP180;9980;51.020;7.772;2023-04-30T14:58:03;97865.00;;;22.20